Terminal Aerodrome Forecast
Issued by NWS

Home | Current Version | Previous Version | Text Only | Print | Product List | Glossary On
Versions: 1 2 3 4 5 6 7 8 9 10 11 12 13 14 15 16 17 18 19 20 21 22 23 24 25 26 27
000
FTUS44 KOUN 201128
TAFHBR
TAF
KHBR 201128Z 2012/2112 18007KT 6SM BR OVC018
     FM201900 18010KT P6SM SCT009 BKN015
     FM210600 18013KT 3SM BR OVC015
     FM210900 18012KT 1SM BR OVC002=

USA.gov is the U.S. government's official web portal to all federal, state and local government web resources and services.